createdAt,value
2019-04-29T00:00:51.122Z,27.33
2019-04-29T00:01:56.375Z,29.03
2019-04-29T00:03:02.523Z,29.73
2019-04-29T00:04:08.020Z,29.33
2019-04-29T00:05:13.796Z,30.33
2019-04-29T00:06:19.043Z,28.07
2019-04-29T00:07:25.290Z,25.00
2019-04-29T00:08:30.531Z,25.57
2019-04-29T00:09:35.737Z,31.67
2019-04-29T00:10:40.981Z,27.80
2019-04-29T00:11:46.469Z,27.13
2019-04-29T00:12:51.657Z,26.67
2019-04-29T00:13:56.872Z,25.73
2019-04-29T00:15:21.576Z,27.63
2019-04-29T00:16:44.656Z,26.77
2019-04-29T00:17:56.814Z,25.47
2019-04-29T00:19:21.058Z,29.57
2019-04-29T00:20:35.803Z,27.77
2019-04-29T00:21:40.977Z,26.40
2019-04-29T00:22:46.132Z,25.90
2019-04-29T00:24:03.236Z,27.07
2019-04-29T00:24:58.284Z,29.77
2019-04-29T00:26:03.365Z,27.87
2019-04-29T00:27:08.923Z,30.43
2019-04-29T00:28:14.245Z,28.30
2019-04-29T00:29:19.551Z,27.40
2019-04-29T00:30:24.964Z,27.13
2019-04-29T00:31:30.160Z,25.87
2019-04-29T00:32:35.414Z,28.73
2019-04-29T00:33:40.695Z,27.67
2019-04-29T00:34:46.099Z,26.37
2019-04-29T00:35:51.544Z,27.53
2019-04-29T00:37:13.738Z,27.53
2019-04-29T00:38:36.914Z,25.27
2019-04-29T00:40:01.127Z,26.00
2019-04-29T00:41:30.162Z,28.97
2019-04-29T00:43:03.386Z,26.93
2019-04-29T00:44:10.932Z,28.63
2019-04-29T00:45:16.461Z,25.53
2019-04-29T00:46:21.981Z,25.70
2019-04-29T00:47:27.366Z,25.87
2019-04-29T00:48:32.753Z,33.23
2019-04-29T00:49:38.262Z,26.73
2019-04-29T00:50:43.665Z,30.63
2019-04-29T00:51:49.049Z,28.77
2019-04-29T00:52:54.415Z,27.10
2019-04-29T00:54:04.141Z,28.67
2019-04-29T00:55:12.653Z,26.17
2019-04-29T00:56:17.930Z,26.20
2019-04-29T00:57:23.328Z,28.17
2019-04-29T00:58:28.520Z,29.67
2019-04-29T00:59:33.853Z,25.97
2019-04-29T01:00:42.654Z,27.07
2019-04-29T01:01:48.144Z,30.13
2019-04-29T01:02:53.365Z,28.40
2019-04-29T01:03:58.594Z,26.10
2019-04-29T01:05:04.148Z,24.33
2019-04-29T01:06:09.451Z,26.43
2019-04-29T01:07:14.680Z,30.37
2019-04-29T01:08:19.887Z,26.83
2019-04-29T01:09:25.244Z,28.33
2019-04-29T01:10:30.472Z,25.37
2019-04-29T01:11:35.814Z,25.47
2019-04-29T01:12:41.060Z,26.27
2019-04-29T01:13:46.322Z,26.00
2019-04-29T01:14:51.709Z,25.80
2019-04-29T01:15:57.026Z,29.00
2019-04-29T01:17:02.274Z,27.43
2019-04-29T01:18:07.607Z,24.53
2019-04-29T01:19:12.925Z,25.83
2019-04-29T01:20:20.821Z,24.57
2019-04-29T01:21:26.132Z,26.87
2019-04-29T01:22:31.912Z,29.33
2019-04-29T01:23:37.226Z,27.40
2019-04-29T01:24:42.586Z,28.80
2019-04-29T01:25:50.800Z,30.73
2019-04-29T01:27:13.725Z,30.13
2019-04-29T01:28:24.659Z,32.47
2019-04-29T01:29:30.273Z,28.33
2019-04-29T01:31:02.586Z,31.63
2019-04-29T01:32:07.973Z,29.87
2019-04-29T01:33:14.433Z,32.13
2019-04-29T01:34:24.853Z,32.00
2019-04-29T01:35:30.183Z,27.90
2019-04-29T01:36:40.277Z,29.27
2019-04-29T01:37:50.889Z,29.83
2019-04-29T01:39:00.144Z,27.57
2019-04-29T01:40:31.318Z,27.97
2019-04-29T01:41:45.949Z,25.97
2019-04-29T01:42:51.393Z,27.13
2019-04-29T01:44:03.989Z,28.67
2019-04-29T01:45:09.436Z,28.73
2019-04-29T01:46:14.692Z,25.77
2019-04-29T01:47:19.991Z,29.43
2019-04-29T01:48:25.231Z,28.83
2019-04-29T01:49:30.458Z,27.13
2019-04-29T01:50:35.833Z,27.57
2019-04-29T01:51:40.964Z,26.57
2019-04-29T01:52:46.262Z,24.93
2019-04-29T01:53:51.572Z,28.30
2019-04-29T01:54:57.177Z,25.47
2019-04-29T01:56:02.493Z,26.07
2019-04-29T01:57:07.828Z,26.97
2019-04-29T01:58:13.837Z,22.97
2019-04-29T01:59:21.554Z,25.63
2019-04-29T02:00:26.139Z,27.93
2019-04-29T02:01:32.863Z,25.00
2019-04-29T02:02:38.169Z,22.77
2019-04-29T02:03:43.438Z,23.50
2019-04-29T02:04:48.806Z,24.83
2019-04-29T02:05:54.177Z,25.13
2019-04-29T02:06:59.489Z,25.73
2019-04-29T02:08:04.933Z,26.23
2019-04-29T02:09:14.349Z,24.43
2019-04-29T02:10:37.730Z,23.33
2019-04-29T02:11:43.399Z,24.50
2019-04-29T02:12:51.799Z,23.33
2019-04-29T02:13:57.375Z,22.83
2019-04-29T02:15:03.078Z,25.60
2019-04-29T02:16:11.339Z,22.83
2019-04-29T02:17:19.757Z,27.17
2019-04-29T02:18:24.994Z,24.40
2019-04-29T02:19:30.628Z,25.37
2019-04-29T02:20:35.877Z,25.70
2019-04-29T02:21:43.706Z,25.23
2019-04-29T02:23:06.852Z,24.63
2019-04-29T02:24:17.433Z,28.70
2019-04-29T02:25:32.891Z,26.47
2019-04-29T02:26:38.253Z,24.00
2019-04-29T02:27:43.566Z,24.80
2019-04-29T02:28:48.927Z,30.80
2019-04-29T02:29:54.527Z,21.93
2019-04-29T02:31:18.790Z,23.67
2019-04-29T02:32:24.160Z,23.07
2019-04-29T02:33:29.987Z,23.53
2019-04-29T02:34:35.528Z,20.87
2019-04-29T02:35:41.063Z,25.30
2019-04-29T02:36:46.588Z,22.57
2019-04-29T02:37:52.190Z,23.63
2019-04-29T02:39:25.473Z,23.50
2019-04-29T02:40:37.849Z,23.43
2019-04-29T02:41:51.130Z,25.07
2019-04-29T02:43:08.264Z,27.47
2019-04-29T02:44:16.251Z,24.10
2019-04-29T02:45:25.168Z,22.53
2019-04-29T02:46:30.463Z,25.20
2019-04-29T02:47:36.073Z,24.70
2019-04-29T02:48:41.474Z,22.60
2019-04-29T02:49:46.891Z,23.53
2019-04-29T02:50:53.472Z,26.13
2019-04-29T02:51:58.980Z,25.77
2019-04-29T02:53:04.368Z,49.60
2019-04-29T02:54:09.648Z,37.40
2019-04-29T02:55:18.561Z,27.67
2019-04-29T02:56:24.078Z,22.93
2019-04-29T02:57:37.408Z,24.50
2019-04-29T02:59:01.327Z,25.30
2019-04-29T03:00:26.087Z,27.23
2019-04-29T03:01:43.082Z,26.83
2019-04-29T03:02:52.979Z,23.97
2019-04-29T03:04:05.117Z,23.67
2019-04-29T03:05:17.134Z,24.83
2019-04-29T03:06:22.465Z,23.80
2019-04-29T03:07:27.904Z,23.93
2019-04-29T03:08:33.948Z,24.13
2019-04-29T03:09:45.454Z,26.37
2019-04-29T03:10:50.870Z,27.30
2019-04-29T03:11:56.618Z,24.37
2019-04-29T03:13:05.370Z,23.93
2019-04-29T03:14:10.755Z,25.57
2019-04-29T03:15:33.393Z,27.07
2019-04-29T03:16:38.951Z,24.63
2019-04-29T03:17:44.416Z,23.97
2019-04-29T03:18:54.045Z,27.87
2019-04-29T03:20:30.410Z,24.27
2019-04-29T03:21:41.231Z,25.30
2019-04-29T03:22:46.504Z,27.17
2019-04-29T03:23:51.781Z,26.67
2019-04-29T03:24:57.230Z,25.00
2019-04-29T03:26:02.738Z,23.77
2019-04-29T03:27:07.922Z,22.80
2019-04-29T03:28:13.223Z,22.77
2019-04-29T03:29:24.336Z,23.43
2019-04-29T03:30:29.570Z,26.83
2019-04-29T03:31:39.128Z,26.57
2019-04-29T03:32:42.008Z,27.97
2019-04-29T03:33:47.334Z,27.37
2019-04-29T03:34:52.718Z,28.50
2019-04-29T03:35:58.118Z,26.73
2019-04-29T03:37:03.557Z,27.27
2019-04-29T03:38:08.830Z,26.03
2019-04-29T03:39:14.113Z,28.40
2019-04-29T03:40:19.360Z,27.07
2019-04-29T03:41:24.930Z,25.83
2019-04-29T03:42:30.205Z,26.00
2019-04-29T03:43:35.714Z,23.73
2019-04-29T03:44:41.133Z,31.23
2019-04-29T03:45:46.633Z,29.70
2019-04-29T03:46:51.827Z,31.80
2019-04-29T03:47:57.105Z,31.90
2019-04-29T03:49:02.395Z,31.37
2019-04-29T03:50:07.988Z,30.33
2019-04-29T03:51:13.370Z,29.67
2019-04-29T03:52:18.568Z,28.43
2019-04-29T03:53:27.919Z,29.17
2019-04-29T03:54:31.209Z,30.67
2019-04-29T03:55:40.086Z,29.30
2019-04-29T03:56:44.441Z,31.07
2019-04-29T03:57:49.962Z,28.07
2019-04-29T03:58:55.282Z,31.47
2019-04-29T04:00:00.655Z,32.40
2019-04-29T04:01:21.196Z,34.37
2019-04-29T04:02:33.156Z,30.77
2019-04-29T04:03:43.328Z,29.57
2019-04-29T04:04:55.659Z,28.90
2019-04-29T04:06:06.143Z,30.30
2019-04-29T04:07:37.621Z,31.87
2019-04-29T04:09:04.291Z,34.10
2019-04-29T04:09:52.528Z,31.07
2019-04-29T04:11:00.689Z,33.93
2019-04-29T04:12:05.935Z,37.80
2019-04-29T04:13:11.379Z,38.63
2019-04-29T04:14:18.915Z,33.97
2019-04-29T04:15:26.091Z,31.80
2019-04-29T04:16:49.484Z,29.20
2019-04-29T04:18:02.723Z,33.67
2019-04-29T04:19:10.009Z,29.47
2019-04-29T04:20:31.099Z,32.93
2019-04-29T04:21:36.541Z,33.27
2019-04-29T04:22:48.186Z,34.50
2019-04-29T04:23:57.829Z,33.67
2019-04-29T04:25:00.699Z,34.23
2019-04-29T04:26:07.660Z,31.90
2019-04-29T04:27:15.242Z,32.43
2019-04-29T04:28:21.819Z,32.43
2019-04-29T04:29:30.613Z,34.03
2019-04-29T04:30:43.195Z,33.50
2019-04-29T04:31:48.550Z,34.80
2019-04-29T04:32:53.696Z,33.80
2019-04-29T04:33:59.191Z,33.13
2019-04-29T04:35:04.678Z,31.30
2019-04-29T04:36:10.042Z,30.57
2019-04-29T04:37:15.345Z,34.97
2019-04-29T04:38:20.636Z,33.53
2019-04-29T04:39:27.561Z,32.30
2019-04-29T04:40:37.128Z,35.80
2019-04-29T04:41:42.390Z,36.23
2019-04-29T04:42:47.702Z,33.40
2019-04-29T04:43:53.142Z,32.33
2019-04-29T04:44:58.433Z,29.40
2019-04-29T04:46:03.670Z,33.70
2019-04-29T04:47:08.965Z,31.83
2019-04-29T04:48:14.329Z,36.97
2019-04-29T04:49:19.597Z,31.63
2019-04-29T04:50:24.895Z,31.67
2019-04-29T04:51:30.802Z,32.43
2019-04-29T04:52:36.394Z,31.90
2019-04-29T04:53:43.019Z,31.83
2019-04-29T04:54:51.562Z,32.73
2019-04-29T04:56:03.110Z,33.33
2019-04-29T04:57:09.786Z,36.27
2019-04-29T04:58:15.053Z,35.23
2019-04-29T04:59:20.602Z,35.63
2019-04-29T05:00:27.089Z,33.50
2019-04-29T05:01:33.326Z,31.80
2019-04-29T05:02:38.977Z,36.97
2019-04-29T05:03:44.591Z,34.20
2019-04-29T05:04:50.331Z,32.10
2019-04-29T05:05:56.263Z,32.67
2019-04-29T05:07:03.804Z,34.37
2019-04-29T05:08:12.789Z,33.80
2019-04-29T05:09:18.058Z,33.60
2019-04-29T05:10:23.299Z,32.17
2019-04-29T05:11:28.727Z,32.73
2019-04-29T05:12:34.009Z,31.97
2019-04-29T05:13:39.247Z,38.30
2019-04-29T05:14:44.865Z,35.67
2019-04-29T05:15:51.254Z,33.73
2019-04-29T05:16:56.486Z,37.73
2019-04-29T05:18:01.949Z,36.47
2019-04-29T05:19:07.365Z,37.53
2019-04-29T05:20:12.785Z,35.67
2019-04-29T05:21:18.235Z,35.17
2019-04-29T05:22:24.491Z,37.27
2019-04-29T05:23:29.719Z,36.23
2019-04-29T05:24:35.170Z,38.63
2019-04-29T05:25:41.501Z,35.63
2019-04-29T05:26:49.283Z,34.93
2019-04-29T05:27:54.475Z,38.30
2019-04-29T05:28:59.836Z,33.37
2019-04-29T05:30:05.666Z,36.43
2019-04-29T05:31:11.067Z,37.33
2019-04-29T05:32:16.292Z,35.60
2019-04-29T05:33:21.505Z,34.30
2019-04-29T05:34:28.413Z,35.60
2019-04-29T05:35:40.406Z,34.63
2019-04-29T05:36:55.694Z,37.87
2019-04-29T05:38:10.275Z,34.73
2019-04-29T05:39:23.083Z,34.40
2019-04-29T05:40:39.825Z,37.93
2019-04-29T05:41:45.902Z,33.70
2019-04-29T05:42:52.517Z,35.93
2019-04-29T05:44:20.390Z,34.07
2019-04-29T05:45:32.672Z,34.67
2019-04-29T05:46:42.047Z,36.90
2019-04-29T05:48:12.209Z,37.90
2019-04-29T05:49:23.042Z,35.10
2019-04-29T05:50:54.105Z,33.10
2019-04-29T05:52:22.826Z,34.07
2019-04-29T05:53:35.200Z,31.30
2019-04-29T05:54:41.986Z,35.70
2019-04-29T05:55:52.427Z,42.17
2019-04-29T05:56:57.384Z,36.47
2019-04-29T05:58:12.881Z,33.90
2019-04-29T05:59:18.708Z,36.53
2019-04-29T06:00:24.334Z,36.37
2019-04-29T06:01:31.800Z,41.77
2019-04-29T06:02:38.805Z,33.60
2019-04-29T06:03:45.801Z,33.07
2019-04-29T06:04:52.311Z,33.93
2019-04-29T06:05:58.351Z,35.17
2019-04-29T06:07:03.838Z,32.30
2019-04-29T06:08:12.657Z,40.83
2019-04-29T06:09:25.649Z,33.47
2019-04-29T06:10:31.244Z,36.47
2019-04-29T06:11:46.226Z,34.90
2019-04-29T06:13:03.665Z,33.73
2019-04-29T06:14:28.189Z,30.90
2019-04-29T06:15:42.889Z,48.90
2019-04-29T06:17:21.149Z,37.60
2019-04-29T06:19:04.203Z,39.47
2019-04-29T06:20:17.524Z,31.23
2019-04-29T06:22:06.395Z,34.73
2019-04-29T06:23:23.114Z,31.40
2019-04-29T06:24:28.299Z,31.70
2019-04-29T06:25:33.701Z,28.57
2019-04-29T06:26:39.082Z,28.97
2019-04-29T06:27:44.428Z,32.40
2019-04-29T06:28:49.612Z,30.33
2019-04-29T06:29:58.539Z,28.27
2019-04-29T06:31:01.944Z,27.83
2019-04-29T06:32:07.636Z,27.13
2019-04-29T06:33:12.974Z,28.63
2019-04-29T06:34:18.237Z,27.27
2019-04-29T06:35:23.437Z,23.80
2019-04-29T06:36:28.651Z,27.77
2019-04-29T06:37:33.805Z,24.37
2019-04-29T06:38:39.159Z,25.30
2019-04-29T06:39:44.478Z,25.00
2019-04-29T06:40:49.791Z,27.17
2019-04-29T06:41:55.061Z,25.10
2019-04-29T06:43:00.282Z,24.53
2019-04-29T06:44:10.184Z,25.37
2019-04-29T06:45:13.040Z,21.93
2019-04-29T06:46:18.294Z,21.93
2019-04-29T06:47:23.551Z,27.43
2019-04-29T06:48:31.030Z,23.90
2019-04-29T06:49:36.287Z,21.97
2019-04-29T06:50:43.139Z,23.67
2019-04-29T06:51:48.742Z,23.13
2019-04-29T06:52:58.429Z,23.47
2019-04-29T06:54:05.375Z,23.77
2019-04-29T06:55:12.307Z,24.00
2019-04-29T06:56:18.981Z,23.00
2019-04-29T06:57:24.703Z,24.10
2019-04-29T06:58:32.505Z,23.90
2019-04-29T06:59:38.331Z,25.53
2019-04-29T07:00:44.358Z,23.93
2019-04-29T07:01:50.402Z,25.53
2019-04-29T07:02:56.288Z,23.30
2019-04-29T07:04:01.834Z,21.33
2019-04-29T07:05:07.901Z,22.10
2019-04-29T07:06:16.690Z,21.27
2019-04-29T07:07:22.230Z,20.93
2019-04-29T07:08:27.556Z,18.77
2019-04-29T07:09:33.028Z,20.83
2019-04-29T07:10:38.273Z,19.67
2019-04-29T07:11:43.686Z,22.07
2019-04-29T07:12:49.075Z,18.67
2019-04-29T07:13:57.587Z,18.53
2019-04-29T07:15:01.517Z,19.00
2019-04-29T07:16:07.108Z,20.90
2019-04-29T07:17:12.503Z,19.40
2019-04-29T07:18:17.798Z,20.13
2019-04-29T07:19:26.588Z,19.87
2019-04-29T07:20:32.448Z,18.40
2019-04-29T07:21:36.821Z,19.90
2019-04-29T07:22:43.260Z,18.00
2019-04-29T07:23:48.523Z,17.97
2019-04-29T07:24:53.824Z,18.77
2019-04-29T07:25:59.217Z,18.00
2019-04-29T07:27:04.543Z,18.13
2019-04-29T07:28:13.897Z,21.03
2019-04-29T07:29:16.877Z,18.93
2019-04-29T07:30:23.567Z,16.70
2019-04-29T07:31:33.216Z,14.97
2019-04-29T07:32:35.899Z,18.53
2019-04-29T07:33:41.375Z,14.33
2019-04-29T07:34:46.700Z,17.83
2019-04-29T07:35:51.989Z,16.27
2019-04-29T07:36:59.178Z,17.10
2019-04-29T07:38:04.632Z,15.97
2019-04-29T07:39:11.274Z,13.40
2019-04-29T07:40:17.026Z,14.20
2019-04-29T07:41:22.393Z,14.40
2019-04-29T07:42:32.325Z,13.90
2019-04-29T07:43:38.587Z,17.53
2019-04-29T07:45:03.372Z,15.47
2019-04-29T07:46:36.385Z,14.27
2019-04-29T07:47:55.588Z,15.10
2019-04-29T07:49:00.721Z,12.87
2019-04-29T07:49:55.760Z,14.53
2019-04-29T07:51:04.205Z,14.53
2019-04-29T07:52:09.789Z,15.73
2019-04-29T07:53:21.923Z,14.17
2019-04-29T07:54:25.533Z,13.70
2019-04-29T07:55:40.147Z,16.10
2019-04-29T07:56:48.007Z,15.87
2019-04-29T07:57:53.821Z,15.23
2019-04-29T07:59:02.910Z,17.23
2019-04-29T08:00:08.534Z,13.33
2019-04-29T08:01:13.551Z,14.10
2019-04-29T08:02:18.785Z,13.60
2019-04-29T08:03:23.934Z,16.53
2019-04-29T08:04:29.135Z,15.23
2019-04-29T08:05:34.572Z,14.20
2019-04-29T08:06:42.884Z,15.33
2019-04-29T08:07:47.716Z,14.73
2019-04-29T08:08:56.320Z,13.30
2019-04-29T08:10:01.671Z,14.10
2019-04-29T08:11:08.089Z,16.33
2019-04-29T08:12:14.493Z,17.20
2019-04-29T08:13:21.903Z,13.93
2019-04-29T08:14:28.606Z,13.27
2019-04-29T08:15:36.736Z,14.87
2019-04-29T08:16:40.672Z,14.33
2019-04-29T08:17:46.057Z,13.50
2019-04-29T08:18:53.501Z,13.73
2019-04-29T08:20:00.613Z,15.00
2019-04-29T08:21:04.951Z,13.47
2019-04-29T08:22:10.186Z,15.20
2019-04-29T08:23:15.546Z,14.70
2019-04-29T08:24:21.718Z,15.63
2019-04-29T08:25:27.217Z,15.37
2019-04-29T08:26:33.623Z,13.60
2019-04-29T08:27:43.449Z,15.27
2019-04-29T08:28:46.782Z,14.67
2019-04-29T08:29:52.123Z,14.77
2019-04-29T08:30:57.420Z,14.70
2019-04-29T08:32:02.669Z,17.87
2019-04-29T08:33:11.921Z,15.07
2019-04-29T08:34:18.799Z,20.73
2019-04-29T08:35:21.798Z,16.27
2019-04-29T08:36:27.174Z,16.87
2019-04-29T08:37:32.408Z,14.33
2019-04-29T08:38:37.826Z,14.27
2019-04-29T08:39:42.942Z,13.73
2019-04-29T08:40:51.554Z,14.63
2019-04-29T08:41:58.840Z,15.60
2019-04-29T08:43:20.597Z,14.47
2019-04-29T08:45:01.589Z,16.67
2019-04-29T08:46:10.316Z,16.30
2019-04-29T08:47:22.974Z,16.47
2019-04-29T08:48:29.291Z,15.47
2019-04-29T08:49:34.526Z,14.80
2019-04-29T08:50:39.845Z,13.43
2019-04-29T08:51:45.195Z,13.20
2019-04-29T08:52:50.382Z,15.67
2019-04-29T08:53:55.597Z,14.40
2019-04-29T08:55:00.838Z,13.97
2019-04-29T08:56:10.124Z,16.87
2019-04-29T08:57:12.911Z,13.83
2019-04-29T08:58:18.105Z,14.10
2019-04-29T08:59:24.430Z,14.23
2019-04-29T09:00:31.325Z,18.93
2019-04-29T09:01:36.515Z,17.53
2019-04-29T09:02:47.151Z,15.17
2019-04-29T09:03:49.012Z,14.90
2019-04-29T09:04:54.465Z,15.33
2019-04-29T09:06:05.701Z,12.40
2019-04-29T09:07:12.860Z,14.20
2019-04-29T09:08:13.767Z,12.27
2019-04-29T09:09:28.648Z,12.83
2019-04-29T09:10:26.052Z,13.00
2019-04-29T09:11:31.377Z,14.00
2019-04-29T09:12:36.683Z,11.57
2019-04-29T09:13:41.848Z,14.67
2019-04-29T09:14:46.979Z,11.30
2019-04-29T09:15:52.326Z,12.33
2019-04-29T09:16:58.693Z,13.57
2019-04-29T09:18:04.100Z,14.23
2019-04-29T09:19:09.292Z,14.67
2019-04-29T09:20:15.339Z,13.83
2019-04-29T09:21:20.671Z,11.57
2019-04-29T09:22:27.711Z,13.00
2019-04-29T09:23:33.676Z,16.10
2019-04-29T09:24:43.574Z,15.13
2019-04-29T09:26:08.677Z,15.00
2019-04-29T09:27:17.019Z,13.17
2019-04-29T09:28:27.485Z,13.60
2019-04-29T09:29:38.564Z,13.40
2019-04-29T09:30:43.965Z,14.37
2019-04-29T09:31:49.214Z,13.67
2019-04-29T09:32:54.463Z,13.37
2019-04-29T09:34:06.285Z,13.53
2019-04-29T09:35:06.869Z,16.27
2019-04-29T09:36:13.853Z,14.07
2019-04-29T09:37:22.819Z,13.10
2019-04-29T09:38:25.705Z,13.73
2019-04-29T09:39:42.291Z,15.50
2019-04-29T09:40:45.575Z,12.23
2019-04-29T09:42:03.436Z,13.97
2019-04-29T09:43:33.857Z,13.40
2019-04-29T09:44:56.768Z,13.23
2019-04-29T09:46:05.781Z,12.23
2019-04-29T09:47:11.250Z,13.70
2019-04-29T09:48:16.566Z,14.27
2019-04-29T09:49:21.845Z,13.37
2019-04-29T09:50:28.598Z,14.30
2019-04-29T09:51:33.948Z,13.73
2019-04-29T09:52:39.029Z,11.50
2019-04-29T09:53:44.232Z,11.43
2019-04-29T09:54:49.548Z,11.30
2019-04-29T09:55:54.899Z,10.90
2019-04-29T09:57:00.185Z,11.10
2019-04-29T09:58:05.648Z,10.30
2019-04-29T09:59:28.243Z,11.00
2019-04-29T10:00:43.415Z,10.83
2019-04-29T10:02:02.930Z,10.90
2019-04-29T10:03:30.349Z,11.20
2019-04-29T10:04:41.235Z,10.57
2019-04-29T10:05:48.738Z,9.77
2019-04-29T10:06:56.532Z,9.87
2019-04-29T10:08:01.651Z,12.23
2019-04-29T10:09:11.037Z,9.90
2019-04-29T10:10:16.323Z,11.43
2019-04-29T10:11:21.590Z,8.33
2019-04-29T10:12:26.931Z,8.17
2019-04-29T10:13:32.151Z,9.37
2019-04-29T10:14:37.361Z,8.97
2019-04-29T10:16:10.355Z,8.77
2019-04-29T10:17:25.508Z,8.63
2019-04-29T10:18:34.885Z,9.60
2019-04-29T10:20:08.285Z,10.17
2019-04-29T10:21:16.553Z,7.60
2019-04-29T10:22:21.977Z,8.47
2019-04-29T10:23:27.185Z,8.90
2019-04-29T10:24:32.355Z,7.77
2019-04-29T10:25:37.559Z,8.90
2019-04-29T10:26:42.867Z,8.63
2019-04-29T10:27:48.110Z,9.13
2019-04-29T10:29:00.336Z,9.33
2019-04-29T10:30:06.411Z,10.73
2019-04-29T10:31:13.135Z,7.73
2019-04-29T10:32:18.664Z,8.07
2019-04-29T10:33:24.602Z,9.00
2019-04-29T10:34:31.546Z,9.30
2019-04-29T10:35:36.686Z,9.40
2019-04-29T10:36:42.044Z,14.13
2019-04-29T10:37:47.298Z,11.17
2019-04-29T10:38:54.352Z,8.83
2019-04-29T10:40:17.646Z,9.80
2019-04-29T10:41:36.112Z,9.53
2019-04-29T10:42:49.891Z,9.53
2019-04-29T10:44:09.719Z,11.67
2019-04-29T10:45:40.704Z,7.57
2019-04-29T10:47:02.309Z,8.60
2019-04-29T10:48:13.897Z,9.10
2019-04-29T10:49:24.803Z,8.77
2019-04-29T10:50:35.694Z,9.17
2019-04-29T10:51:40.995Z,9.20
2019-04-29T10:52:46.123Z,7.33
2019-04-29T10:53:52.648Z,8.50
2019-04-29T10:54:58.064Z,6.90
2019-04-29T10:56:05.865Z,8.00
2019-04-29T10:57:14.342Z,7.37
2019-04-29T10:58:21.902Z,7.60
2019-04-29T10:59:35.691Z,9.23
2019-04-29T11:01:15.259Z,7.43
2019-04-29T11:02:31.232Z,8.20
2019-04-29T11:03:37.427Z,8.37
2019-04-29T11:04:42.745Z,7.20
2019-04-29T11:06:00.283Z,8.37
2019-04-29T11:06:56.976Z,8.93
2019-04-29T11:08:24.593Z,8.60
2019-04-29T11:09:38.960Z,7.90
2019-04-29T11:10:45.405Z,9.37
2019-04-29T11:11:51.919Z,7.70
2019-04-29T11:12:57.552Z,8.83
2019-04-29T11:14:03.208Z,9.40
2019-04-29T11:15:13.678Z,8.40
2019-04-29T11:16:16.856Z,8.13
2019-04-29T11:17:23.962Z,7.33
2019-04-29T11:18:29.181Z,8.63
2019-04-29T11:19:35.084Z,8.60
2019-04-29T11:20:44.456Z,7.77
2019-04-29T11:21:48.514Z,7.77
2019-04-29T11:23:18.021Z,7.17
2019-04-29T11:24:46.544Z,8.03
2019-04-29T11:26:03.100Z,8.37
2019-04-29T11:27:17.908Z,7.30
2019-04-29T11:28:23.737Z,9.70
2019-04-29T11:29:29.193Z,6.97
2019-04-29T11:30:39.500Z,7.33
2019-04-29T11:31:42.562Z,7.97
2019-04-29T11:32:52.218Z,10.10
2019-04-29T11:34:15.757Z,7.83
2019-04-29T11:35:31.149Z,11.00
2019-04-29T11:36:39.041Z,8.43
2019-04-29T11:37:43.457Z,10.37
2019-04-29T11:38:48.683Z,7.70
2019-04-29T11:39:56.981Z,8.20
2019-04-29T11:41:02.157Z,6.87
2019-04-29T11:42:09.889Z,9.77
2019-04-29T11:43:17.257Z,7.47
2019-04-29T11:44:26.575Z,8.87
2019-04-29T11:45:33.900Z,6.30
2019-04-29T11:46:37.447Z,6.20
2019-04-29T11:47:42.603Z,6.70
2019-04-29T11:48:48.457Z,7.07
2019-04-29T11:50:01.340Z,7.50
2019-04-29T11:51:34.087Z,6.40
2019-04-29T11:52:36.777Z,6.17
2019-04-29T11:53:42.121Z,5.57
2019-04-29T11:54:47.441Z,5.07
2019-04-29T11:55:57.180Z,6.60
2019-04-29T11:56:59.856Z,7.47
2019-04-29T11:58:13.404Z,6.53
2019-04-29T11:59:55.737Z,6.30
2019-04-29T12:01:20.758Z,6.87
2019-04-29T12:02:45.655Z,6.00
2019-04-29T12:03:46.632Z,6.67
2019-04-29T12:05:10.809Z,5.40
2019-04-29T12:06:20.742Z,5.30
2019-04-29T12:07:31.723Z,5.70
2019-04-29T12:08:33.624Z,5.47
2019-04-29T12:09:40.022Z,7.17
2019-04-29T12:10:52.074Z,7.30
2019-04-29T12:11:52.253Z,7.00
2019-04-29T12:12:59.175Z,5.43
2019-04-29T12:14:33.788Z,5.43
2019-04-29T12:15:56.569Z,5.77
2019-04-29T12:17:19.187Z,6.03
2019-04-29T12:18:34.128Z,5.30
2019-04-29T12:19:41.516Z,5.23
2019-04-29T12:21:05.900Z,5.47
2019-04-29T12:22:25.898Z,5.70
2019-04-29T12:23:18.311Z,5.43
2019-04-29T12:24:23.514Z,6.73
2019-04-29T12:25:29.419Z,4.90
2019-04-29T12:26:41.051Z,5.87
2019-04-29T12:27:41.856Z,4.50
2019-04-29T12:28:47.173Z,6.70
2019-04-29T12:29:54.418Z,7.10
2019-04-29T12:31:05.721Z,5.53
2019-04-29T12:32:20.703Z,5.10
2019-04-29T12:33:37.009Z,5.53
2019-04-29T12:35:10.702Z,6.17
2019-04-29T12:36:16.661Z,5.27
2019-04-29T12:37:40.965Z,6.00
2019-04-29T12:39:08.159Z,5.47
2019-04-29T12:40:32.796Z,6.90
2019-04-29T12:41:55.713Z,5.60
2019-04-29T12:43:35.251Z,5.97
2019-04-29T12:45:02.848Z,6.43
2019-04-29T12:46:16.449Z,5.70
2019-04-29T12:47:33.784Z,5.30
2019-04-29T12:48:39.039Z,6.17
2019-04-29T12:49:46.396Z,5.80
2019-04-29T12:50:57.121Z,6.93
2019-04-29T12:51:57.878Z,6.00
2019-04-29T12:53:03.293Z,6.30
2019-04-29T12:54:10.098Z,5.73
2019-04-29T12:55:29.352Z,5.80
2019-04-29T12:56:35.494Z,6.27
2019-04-29T12:57:40.641Z,6.17
2019-04-29T12:58:50.525Z,5.80
2019-04-29T12:59:54.500Z,7.67
2019-04-29T13:01:06.124Z,7.10
2019-04-29T13:02:27.929Z,5.20
2019-04-29T13:03:50.151Z,6.80
2019-04-29T13:05:03.464Z,9.00
2019-04-29T13:06:23.883Z,6.70
2019-04-29T13:07:50.127Z,6.03
2019-04-29T13:08:57.356Z,6.83
2019-04-29T13:10:13.753Z,6.20
2019-04-29T13:11:20.764Z,5.87
2019-04-29T13:12:25.843Z,6.63
2019-04-29T13:13:31.323Z,6.93
2019-04-29T13:14:39.394Z,6.00
2019-04-29T13:16:03.081Z,6.87
2019-04-29T13:17:17.712Z,6.47
2019-04-29T13:18:28.378Z,6.57
2019-04-29T13:20:00.661Z,6.83
2019-04-29T13:20:53.906Z,6.83
2019-04-29T13:21:59.185Z,7.63
2019-04-29T13:23:17.503Z,5.97
2019-04-29T13:24:22.491Z,5.63
2019-04-29T13:25:19.664Z,7.77
2019-04-29T13:26:28.354Z,6.07
2019-04-29T13:27:33.196Z,5.83
2019-04-29T13:28:51.709Z,6.30
2019-04-29T13:29:45.133Z,4.90
2019-04-29T13:30:51.483Z,7.37
2019-04-29T13:32:01.345Z,5.30
2019-04-29T13:33:06.288Z,5.33
2019-04-29T13:34:23.741Z,5.83
2019-04-29T13:35:20.552Z,9.60
2019-04-29T13:36:26.353Z,6.60
2019-04-29T13:37:33.652Z,7.20
2019-04-29T13:38:38.877Z,8.37
2019-04-29T13:39:44.213Z,6.20
2019-04-29T13:40:49.465Z,7.23
2019-04-29T13:41:57.773Z,6.30
2019-04-29T13:43:01.784Z,6.13
2019-04-29T13:44:07.671Z,7.00
2019-04-29T13:45:19.989Z,7.30
2019-04-29T13:46:51.183Z,7.37
2019-04-29T13:48:12.610Z,7.77
2019-04-29T13:49:31.499Z,7.57
2019-04-29T13:50:47.788Z,7.97
2019-04-29T13:51:54.069Z,7.97
2019-04-29T13:52:59.244Z,10.27
2019-04-29T13:54:06.497Z,7.00
2019-04-29T13:55:17.789Z,9.73
2019-04-29T13:56:35.216Z,8.03
2019-04-29T13:57:25.373Z,8.57
2019-04-29T13:58:30.579Z,8.07
2019-04-29T13:59:49.121Z,10.80
2019-04-29T14:01:01.896Z,9.03
2019-04-29T14:02:22.794Z,9.67
2019-04-29T14:03:47.155Z,8.73
2019-04-29T14:04:55.917Z,8.53
2019-04-29T14:06:04.306Z,9.07
2019-04-29T14:07:06.585Z,9.53
2019-04-29T14:08:11.769Z,9.87
2019-04-29T14:09:18.361Z,8.80
2019-04-29T14:10:23.538Z,9.80
2019-04-29T14:11:32.464Z,10.87
2019-04-29T14:13:04.992Z,9.67
2019-04-29T14:13:48.370Z,10.00
2019-04-29T14:14:54.036Z,11.73
2019-04-29T14:15:59.066Z,10.37
2019-04-29T14:17:24.123Z,10.43
2019-04-29T14:18:13.739Z,11.10
2019-04-29T14:19:39.452Z,10.73
2019-04-29T14:20:26.013Z,11.03
2019-04-29T14:21:31.954Z,11.13
2019-04-29T14:22:37.670Z,12.27
2019-04-29T14:23:42.989Z,12.17
2019-04-29T14:24:48.201Z,11.03
2019-04-29T14:25:53.506Z,12.03
2019-04-29T14:26:58.704Z,11.60
2019-04-29T14:28:03.934Z,11.90
2019-04-29T14:29:09.179Z,11.07
2019-04-29T14:30:20.650Z,12.00
2019-04-29T14:31:26.239Z,12.63
2019-04-29T14:32:36.038Z,12.40
2019-04-29T14:33:44.837Z,12.93
2019-04-29T14:35:07.158Z,23.87
2019-04-29T14:36:11.591Z,12.83
2019-04-29T14:37:23.495Z,12.73
2019-04-29T14:38:26.016Z,15.03
2019-04-29T14:39:37.188Z,13.63
2019-04-29T14:40:39.077Z,14.47
2019-04-29T14:41:51.025Z,13.00
2019-04-29T14:43:27.040Z,12.50
2019-04-29T14:44:42.225Z,13.27
2019-04-29T14:46:08.144Z,13.07
2019-04-29T14:47:38.976Z,13.83
2019-04-29T14:48:54.783Z,14.87
2019-04-29T14:50:02.015Z,13.80
2019-04-29T14:51:07.973Z,17.33
2019-04-29T14:52:14.883Z,14.27
2019-04-29T14:53:24.404Z,16.40
2019-04-29T14:54:28.537Z,14.10
2019-04-29T14:55:35.211Z,14.47
2019-04-29T14:56:41.564Z,15.27
2019-04-29T14:57:49.259Z,14.63
2019-04-29T14:59:06.043Z,14.77